AFL142 UNNT-UNKL
Flight info
| Callsign | AFL142 |
|---|---|
| Flight time | 0h 58m |
| Altitude | 31000 |
| Route | OGATI A308 RISPA A366 KESED A309 ROTLI A300 RANET |
| Aircraft | A333/M-SDFGRYZ/S |
Departure
| Time | 2026-05-05 14:44 |
|---|---|
| Airport | Novosibirsk Tolmachevo Airport (UNNT) |
Arrival
| Time | 2026-05-05 15:42 |
|---|---|
| Airport | Krasnoyarsk International Airport (UNKL) |
| Time | Latitude | Longitude | Altitude | Speed | Heading |
|---|---|---|---|---|---|
| 2026-05-05 14:29 | 55.01165 | 82.67297 | 364 ft | 0 kts | 171° |
| 2026-05-05 14:40 | 55.01164 | 82.67297 | 364 ft | 0 kts | 171° |
| 2026-05-05 14:40 | 55.01147 | 82.67303 | 364 ft | 4 kts | 167° |
| 2026-05-05 14:40 | 55.01116 | 82.67383 | 364 ft | 11 kts | 96° |
| 2026-05-05 14:40 | 55.01166 | 82.67510 | 364 ft | 15 kts | 33° |
| 2026-05-05 14:41 | 55.01280 | 82.67625 | 361 ft | 21 kts | 32° |
| 2026-05-05 14:41 | 55.01321 | 82.67668 | 361 ft | 1 kts | 31° |
| 2026-05-05 14:41 | 55.01342 | 82.67690 | 361 ft | 5 kts | 30° |
| 2026-05-05 14:41 | 55.01389 | 82.67735 | 361 ft | 9 kts | 30° |
| 2026-05-05 14:42 | 55.01455 | 82.67772 | 361 ft | 8 kts | 340° |
| 2026-05-05 14:42 | 55.01479 | 82.67661 | 361 ft | 10 kts | 265° |
| 2026-05-05 14:42 | 55.01476 | 82.67630 | 361 ft | 0 kts | 261° |
| 2026-05-05 14:43 | 55.01472 | 82.67576 | 361 ft | 22 kts | 262° |
| 2026-05-05 14:43 | 55.01402 | 82.66798 | 358 ft | 108 kts | 261° |
| 2026-05-05 14:43 | 55.01248 | 82.65074 | 389 ft | 175 kts | 262° |
| 2026-05-05 14:44 | 55.01040 | 82.62881 | 987 ft | 197 kts | 261° |
| 2026-05-05 14:44 | 55.00808 | 82.60425 | 1693 ft | 209 kts | 261° |
| 2026-05-05 14:44 | 55.00185 | 82.58129 | 2338 ft | 221 kts | 230° |
| 2026-05-05 14:44 | 54.98840 | 82.56751 | 2996 ft | 238 kts | 198° |
| 2026-05-05 14:45 | 54.97154 | 82.56817 | 3656 ft | 256 kts | 167° |
| 2026-05-05 14:45 | 54.95601 | 82.58433 | 4318 ft | 271 kts | 137° |
| 2026-05-05 14:45 | 54.94500 | 82.61086 | 4980 ft | 280 kts | 124° |
| 2026-05-05 14:45 | 54.93773 | 82.64262 | 5603 ft | 291 kts | 102° |
| 2026-05-05 14:46 | 54.93514 | 82.67775 | 6254 ft | 298 kts | 95° |
| 2026-05-05 14:46 | 54.93360 | 82.71397 | 6892 ft | 306 kts | 94° |
| 2026-05-05 14:46 | 54.93232 | 82.75138 | 7534 ft | 314 kts | 93° |
| 2026-05-05 14:46 | 54.93110 | 82.78976 | 8101 ft | 325 kts | 92° |
| 2026-05-05 14:47 | 54.92985 | 82.82970 | 8623 ft | 338 kts | 93° |
| 2026-05-05 14:47 | 54.92853 | 82.87052 | 9135 ft | 350 kts | 92° |
| 2026-05-05 14:47 | 54.92715 | 82.91343 | 9676 ft | 361 kts | 92° |
| 2026-05-05 14:47 | 54.92572 | 82.95768 | 10256 ft | 371 kts | 92° |
| 2026-05-05 14:48 | 54.92424 | 83.00248 | 10848 ft | 380 kts | 92° |
| 2026-05-05 14:48 | 54.92269 | 83.04877 | 11444 ft | 389 kts | 92° |
| 2026-05-05 14:48 | 54.92110 | 83.09603 | 12025 ft | 397 kts | 91° |
| 2026-05-05 14:48 | 54.91946 | 83.14406 | 12613 ft | 404 kts | 92° |
| 2026-05-05 14:49 | 54.91776 | 83.19306 | 13206 ft | 411 kts | 92° |
| 2026-05-05 14:49 | 54.91603 | 83.24271 | 13792 ft | 417 kts | 91° |
| 2026-05-05 14:49 | 54.91426 | 83.29310 | 14339 ft | 423 kts | 91° |
| 2026-05-05 14:49 | 54.91242 | 83.34435 | 14830 ft | 430 kts | 91° |
| 2026-05-05 14:50 | 54.91053 | 83.39656 | 15336 ft | 437 kts | 92° |
| 2026-05-05 14:50 | 54.90863 | 83.44879 | 15842 ft | 442 kts | 92° |
| 2026-05-05 14:50 | 54.90665 | 83.50205 | 16342 ft | 447 kts | 92° |
| 2026-05-05 14:50 | 54.90462 | 83.55620 | 16845 ft | 451 kts | 92° |
| 2026-05-05 14:51 | 54.90254 | 83.61068 | 17338 ft | 450 kts | 92° |
| 2026-05-05 14:51 | 54.90048 | 83.66448 | 17841 ft | 452 kts | 93° |
| 2026-05-05 14:51 | 54.89837 | 83.71877 | 18333 ft | 454 kts | 93° |
| 2026-05-05 14:51 | 54.89622 | 83.77337 | 18833 ft | 457 kts | 93° |
| 2026-05-05 14:52 | 54.89403 | 83.82853 | 19333 ft | 461 kts | 93° |
| 2026-05-05 14:52 | 54.89178 | 83.88438 | 19833 ft | 464 kts | 93° |
| 2026-05-05 14:52 | 54.88949 | 83.94041 | 20339 ft | 467 kts | 93° |
| 2026-05-05 14:52 | 54.88719 | 83.99630 | 20841 ft | 469 kts | 93° |
| 2026-05-05 14:53 | 54.88483 | 84.05294 | 21301 ft | 472 kts | 93° |
| 2026-05-05 14:53 | 54.88245 | 84.10967 | 21719 ft | 475 kts | 93° |
| 2026-05-05 14:53 | 54.88002 | 84.16667 | 22150 ft | 478 kts | 93° |
| 2026-05-05 14:53 | 54.87754 | 84.22414 | 22581 ft | 480 kts | 92° |
| 2026-05-05 14:54 | 54.87506 | 84.28130 | 23011 ft | 483 kts | 92° |
| 2026-05-05 14:54 | 54.87251 | 84.33924 | 23445 ft | 485 kts | 92° |
| 2026-05-05 14:54 | 54.86992 | 84.39745 | 23889 ft | 487 kts | 92° |
| 2026-05-05 14:54 | 54.86728 | 84.45605 | 24336 ft | 489 kts | 92° |
| 2026-05-05 14:55 | 54.86372 | 84.53423 | 24941 ft | 491 kts | 92° |
| 2026-05-05 14:55 | 54.86190 | 84.57375 | 25247 ft | 492 kts | 92° |
| 2026-05-05 14:55 | 54.85916 | 84.63273 | 25702 ft | 494 kts | 92° |
| 2026-05-05 14:55 | 54.85631 | 84.69189 | 26152 ft | 495 kts | 93° |
| 2026-05-05 14:56 | 54.85324 | 84.75129 | 26597 ft | 497 kts | 92° |
| 2026-05-05 14:56 | 54.85013 | 84.81084 | 27044 ft | 498 kts | 92° |
| 2026-05-05 14:56 | 54.84699 | 84.87031 | 27493 ft | 499 kts | 92° |
| 2026-05-05 14:56 | 54.84384 | 84.92996 | 27942 ft | 500 kts | 92° |
| 2026-05-05 14:57 | 54.84062 | 84.98991 | 28394 ft | 501 kts | 92° |
| 2026-05-05 14:57 | 54.83738 | 85.05006 | 28841 ft | 503 kts | 91° |
| 2026-05-05 14:57 | 54.83411 | 85.11000 | 29293 ft | 503 kts | 92° |
| 2026-05-05 14:57 | 54.83081 | 85.17025 | 29744 ft | 504 kts | 91° |
| 2026-05-05 14:58 | 54.82958 | 85.23041 | 30183 ft | 498 kts | 80° |
| 2026-05-05 14:58 | 54.83679 | 85.28797 | 30618 ft | 485 kts | 63° |
| 2026-05-05 14:58 | 54.85166 | 85.33938 | 31042 ft | 471 kts | 49° |
| 2026-05-05 14:58 | 54.87267 | 85.38216 | 31035 ft | 469 kts | 38° |
| 2026-05-05 14:59 | 54.91856 | 85.46439 | 31065 ft | 485 kts | 38° |
| 2026-05-05 14:59 | 54.96595 | 85.54997 | 31021 ft | 496 kts | 38° |
| 2026-05-05 15:00 | 55.01374 | 85.63660 | 31006 ft | 503 kts | 39° |
| 2026-05-05 15:00 | 55.06192 | 85.72432 | 31068 ft | 503 kts | 39° |
| 2026-05-05 15:01 | 55.10932 | 85.81093 | 31038 ft | 490 kts | 39° |
| 2026-05-05 15:01 | 55.15612 | 85.89664 | 30987 ft | 490 kts | 39° |
| 2026-05-05 15:02 | 55.20286 | 85.98261 | 31051 ft | 491 kts | 39° |
| 2026-05-05 15:02 | 55.24979 | 86.06926 | 31066 ft | 492 kts | 39° |
| 2026-05-05 15:03 | 55.27156 | 86.11674 | 31014 ft | 507 kts | 51° |
| 2026-05-05 15:03 | 55.28689 | 86.17255 | 31026 ft | 515 kts | 60° |
| 2026-05-05 15:03 | 55.31492 | 86.28773 | 30987 ft | 516 kts | 60° |
| 2026-05-05 15:04 | 55.34308 | 86.40297 | 31057 ft | 516 kts | 59° |
| 2026-05-05 15:04 | 55.37101 | 86.51784 | 31096 ft | 515 kts | 59° |
| 2026-05-05 15:05 | 55.41754 | 86.71043 | 31059 ft | 516 kts | 60° |
| 2026-05-05 15:06 | 55.44056 | 86.80640 | 31044 ft | 515 kts | 60° |
| 2026-05-05 15:06 | 55.46835 | 86.92276 | 31005 ft | 517 kts | 60° |
| 2026-05-05 15:07 | 55.49591 | 87.03879 | 31051 ft | 517 kts | 60° |
| 2026-05-05 15:07 | 55.52330 | 87.15482 | 31065 ft | 514 kts | 60° |
| 2026-05-05 15:08 | 55.55070 | 87.27145 | 31014 ft | 512 kts | 59° |
| 2026-05-05 15:08 | 55.57772 | 87.38707 | 31007 ft | 511 kts | 59° |
| 2026-05-05 15:09 | 55.60465 | 87.50285 | 31033 ft | 513 kts | 59° |
| 2026-05-05 15:09 | 55.63146 | 87.61876 | 31037 ft | 511 kts | 59° |
| 2026-05-05 15:10 | 55.65831 | 87.73545 | 31019 ft | 512 kts | 60° |
| 2026-05-05 15:10 | 55.68487 | 87.85151 | 31033 ft | 512 kts | 60° |
| 2026-05-05 15:11 | 55.71118 | 87.96710 | 31053 ft | 510 kts | 60° |
| 2026-05-05 15:11 | 55.73744 | 88.08316 | 31037 ft | 509 kts | 60° |
| 2026-05-05 15:12 | 55.76384 | 88.20038 | 31005 ft | 514 kts | 60° |
| 2026-05-05 15:12 | 55.78988 | 88.31675 | 31063 ft | 512 kts | 59° |
| 2026-05-05 15:13 | 55.82022 | 88.45314 | 31070 ft | 510 kts | 59° |
| 2026-05-05 15:13 | 55.84189 | 88.55108 | 31009 ft | 511 kts | 59° |
| 2026-05-05 15:14 | 55.86771 | 88.66832 | 31035 ft | 515 kts | 60° |
| 2026-05-05 15:14 | 55.89361 | 88.78674 | 31070 ft | 513 kts | 60° |
| 2026-05-05 15:15 | 55.91927 | 88.90475 | 31022 ft | 512 kts | 60° |
| 2026-05-05 15:15 | 55.94503 | 89.02367 | 31007 ft | 515 kts | 60° |
| 2026-05-05 15:16 | 55.97035 | 89.14198 | 31051 ft | 514 kts | 60° |
| 2026-05-05 15:16 | 55.99548 | 89.26034 | 31054 ft | 511 kts | 60° |
| 2026-05-05 15:17 | 56.02050 | 89.37877 | 31009 ft | 511 kts | 60° |
| 2026-05-05 15:17 | 56.04549 | 89.49776 | 31041 ft | 512 kts | 60° |
| 2026-05-05 15:18 | 56.07026 | 89.61642 | 31052 ft | 511 kts | 60° |
| 2026-05-05 15:18 | 56.09501 | 89.73565 | 30997 ft | 513 kts | 61° |
| 2026-05-05 15:19 | 56.11961 | 89.85485 | 30800 ft | 519 kts | 61° |
| 2026-05-05 15:19 | 56.13210 | 89.91569 | 30218 ft | 514 kts | 61° |
| 2026-05-05 15:19 | 56.14405 | 89.97414 | 29694 ft | 503 kts | 62° |
| 2026-05-05 15:19 | 56.15599 | 90.03252 | 29205 ft | 496 kts | 62° |
| 2026-05-05 15:20 | 56.16782 | 90.09055 | 28709 ft | 493 kts | 62° |
| 2026-05-05 15:20 | 56.17943 | 90.14759 | 28065 ft | 492 kts | 63° |
| 2026-05-05 15:20 | 56.19108 | 90.20524 | 27398 ft | 488 kts | 64° |
| 2026-05-05 15:20 | 56.20245 | 90.26154 | 26764 ft | 482 kts | 64° |
| 2026-05-05 15:21 | 56.21381 | 90.31807 | 26113 ft | 477 kts | 64° |
| 2026-05-05 15:21 | 56.22486 | 90.37305 | 25477 ft | 473 kts | 65° |
| 2026-05-05 15:21 | 56.23591 | 90.42825 | 24848 ft | 468 kts | 66° |
| 2026-05-05 15:21 | 56.24683 | 90.48305 | 24183 ft | 464 kts | 66° |
| 2026-05-05 15:22 | 56.25763 | 90.53728 | 23525 ft | 459 kts | 67° |
| 2026-05-05 15:22 | 56.26797 | 90.59045 | 22832 ft | 456 kts | 69° |
| 2026-05-05 15:22 | 56.27306 | 90.64641 | 22117 ft | 457 kts | 84° |
| 2026-05-05 15:22 | 56.27444 | 90.70303 | 21431 ft | 453 kts | 86° |
| 2026-05-05 15:23 | 56.27577 | 90.75960 | 20761 ft | 449 kts | 86° |
| 2026-05-05 15:23 | 56.27705 | 90.81514 | 20086 ft | 446 kts | 86° |
| 2026-05-05 15:23 | 56.27828 | 90.86970 | 19410 ft | 442 kts | 86° |
| 2026-05-05 15:23 | 56.27951 | 90.92520 | 18731 ft | 439 kts | 86° |
| 2026-05-05 15:24 | 56.28068 | 90.97926 | 18124 ft | 435 kts | 86° |
| 2026-05-05 15:24 | 56.28182 | 91.03283 | 17762 ft | 425 kts | 86° |
| 2026-05-05 15:24 | 56.28292 | 91.08539 | 17316 ft | 419 kts | 86° |
| 2026-05-05 15:24 | 56.28330 | 91.13728 | 16839 ft | 415 kts | 93° |
| 2026-05-05 15:25 | 56.27946 | 91.18832 | 16334 ft | 406 kts | 97° |
| 2026-05-05 15:25 | 56.27552 | 91.23686 | 15733 ft | 384 kts | 97° |
| 2026-05-05 15:25 | 56.27175 | 91.28302 | 15092 ft | 367 kts | 97° |
| 2026-05-05 15:25 | 56.26813 | 91.32737 | 14434 ft | 353 kts | 97° |
| 2026-05-05 15:26 | 56.26462 | 91.37023 | 13790 ft | 342 kts | 97° |
| 2026-05-05 15:26 | 56.26125 | 91.41125 | 13170 ft | 332 kts | 97° |
| 2026-05-05 15:26 | 56.25792 | 91.45170 | 12543 ft | 324 kts | 98° |
| 2026-05-05 15:26 | 56.25467 | 91.49096 | 11919 ft | 319 kts | 98° |
| 2026-05-05 15:27 | 56.25140 | 91.53025 | 11452 ft | 317 kts | 99° |
| 2026-05-05 15:27 | 56.24809 | 91.56963 | 10990 ft | 322 kts | 99° |
| 2026-05-05 15:27 | 56.24474 | 91.60953 | 10489 ft | 327 kts | 100° |
| 2026-05-05 15:27 | 56.24134 | 91.64985 | 9999 ft | 331 kts | 100° |
| 2026-05-05 15:28 | 56.23727 | 91.69051 | 9490 ft | 331 kts | 110° |
| 2026-05-05 15:28 | 56.22908 | 91.72867 | 8961 ft | 329 kts | 115° |
| 2026-05-05 15:28 | 56.22071 | 91.76621 | 8348 ft | 315 kts | 115° |
| 2026-05-05 15:28 | 56.21278 | 91.80168 | 7973 ft | 298 kts | 115° |
| 2026-05-05 15:29 | 56.21055 | 91.81163 | 7865 ft | 293 kts | 115° |
| 2026-05-05 15:29 | 56.20665 | 91.82906 | 7628 ft | 291 kts | 115° |
| 2026-05-05 15:29 | 56.19918 | 91.86237 | 7239 ft | 286 kts | 115° |
| 2026-05-05 15:29 | 56.19178 | 91.89530 | 6856 ft | 283 kts | 115° |
| 2026-05-05 15:30 | 56.18201 | 91.93879 | 6462 ft | 284 kts | 115° |
| 2026-05-05 15:30 | 56.17698 | 91.96104 | 6177 ft | 288 kts | 115° |
| 2026-05-05 15:30 | 56.16951 | 91.99421 | 5638 ft | 287 kts | 115° |
| 2026-05-05 15:30 | 56.16208 | 92.02711 | 5193 ft | 284 kts | 115° |
| 2026-05-05 15:31 | 56.15482 | 92.05923 | 4748 ft | 282 kts | 115° |
| 2026-05-05 15:31 | 56.14740 | 92.09193 | 4285 ft | 280 kts | 115° |
| 2026-05-05 15:31 | 56.14019 | 92.12375 | 3871 ft | 281 kts | 115° |
| 2026-05-05 15:31 | 56.13279 | 92.15630 | 3540 ft | 283 kts | 115° |
| 2026-05-05 15:32 | 56.12537 | 92.18891 | 3341 ft | 279 kts | 115° |
| 2026-05-05 15:32 | 56.11816 | 92.22057 | 3340 ft | 268 kts | 115° |
| 2026-05-05 15:32 | 56.11129 | 92.25065 | 3410 ft | 255 kts | 115° |
| 2026-05-05 15:32 | 56.10472 | 92.27943 | 3420 ft | 245 kts | 115° |
| 2026-05-05 15:33 | 56.09833 | 92.30728 | 3417 ft | 241 kts | 116° |
| 2026-05-05 15:33 | 56.09206 | 92.33466 | 3445 ft | 239 kts | 116° |
| 2026-05-05 15:33 | 56.08571 | 92.36227 | 3427 ft | 240 kts | 116° |
| 2026-05-05 15:33 | 56.07935 | 92.38995 | 3424 ft | 238 kts | 116° |
| 2026-05-05 15:34 | 56.07324 | 92.41655 | 3957 ft | 235 kts | 116° |
| 2026-05-05 15:34 | 56.06678 | 92.44448 | 4026 ft | 245 kts | 115° |
| 2026-05-05 15:34 | 56.06032 | 92.47257 | 4006 ft | 241 kts | 116° |
| 2026-05-05 15:34 | 56.05399 | 92.49995 | 4044 ft | 241 kts | 116° |
| 2026-05-05 15:35 | 56.04745 | 92.52776 | 4022 ft | 240 kts | 117° |
| 2026-05-05 15:35 | 56.04095 | 92.55485 | 4041 ft | 240 kts | 116° |
| 2026-05-05 15:35 | 56.03216 | 92.59154 | 4027 ft | 241 kts | 116° |
| 2026-05-05 15:35 | 56.02782 | 92.60966 | 4034 ft | 240 kts | 116° |
| 2026-05-05 15:36 | 56.02120 | 92.63721 | 4027 ft | 240 kts | 116° |
| 2026-05-05 15:36 | 56.01472 | 92.66417 | 4023 ft | 234 kts | 117° |
| 2026-05-05 15:36 | 56.00847 | 92.69111 | 4026 ft | 238 kts | 110° |
| 2026-05-05 15:36 | 56.00778 | 92.72070 | 4043 ft | 249 kts | 78° |
| 2026-05-05 15:37 | 56.01593 | 92.74803 | 4045 ft | 252 kts | 45° |
| 2026-05-05 15:37 | 56.03046 | 92.76414 | 4042 ft | 247 kts | 13° |
| 2026-05-05 15:37 | 56.04701 | 92.77216 | 4055 ft | 248 kts | 17° |
| 2026-05-05 15:37 | 56.06315 | 92.78310 | 4025 ft | 246 kts | 20° |
| 2026-05-05 15:38 | 56.07896 | 92.79094 | 4004 ft | 233 kts | 356° |
| 2026-05-05 15:38 | 56.09370 | 92.78398 | 4041 ft | 215 kts | 321° |
| 2026-05-05 15:38 | 56.10413 | 92.76585 | 4053 ft | 206 kts | 300° |
| 2026-05-05 15:38 | 56.11143 | 92.74399 | 4032 ft | 204 kts | 294° |
| 2026-05-05 15:39 | 56.11836 | 92.72176 | 3803 ft | 206 kts | 294° |
| 2026-05-05 15:39 | 56.12448 | 92.69885 | 3278 ft | 208 kts | 289° |
| 2026-05-05 15:39 | 56.13033 | 92.67506 | 3196 ft | 200 kts | 290° |
| 2026-05-05 15:39 | 56.13673 | 92.65235 | 2826 ft | 208 kts | 291° |
| 2026-05-05 15:40 | 56.14173 | 92.62870 | 2380 ft | 202 kts | 286° |
| 2026-05-05 15:40 | 56.14658 | 92.60557 | 1990 ft | 197 kts | 290° |
| 2026-05-05 15:40 | 56.15165 | 92.58378 | 1687 ft | 181 kts | 291° |
| 2026-05-05 15:40 | 56.15638 | 92.56345 | 1441 ft | 173 kts | 290° |
| 2026-05-05 15:41 | 56.16102 | 92.54352 | 1253 ft | 178 kts | 292° |
| 2026-05-05 15:41 | 56.16594 | 92.52264 | 1025 ft | 184 kts | 292° |
| 2026-05-05 15:41 | 56.17087 | 92.50207 | 929 ft | 172 kts | 293° |
| 2026-05-05 15:41 | 56.17354 | 92.49060 | 913 ft | 66 kts | 294° |
| 2026-05-05 15:42 | 56.17491 | 92.48706 | 907 ft | 25 kts | 322° |
| 2026-05-05 15:42 | 56.17633 | 92.48520 | 907 ft | 25 kts | 323° |
| 2026-05-05 15:42 | 56.17695 | 92.48438 | 909 ft | 6 kts | 324° |
| 2026-05-05 15:42 | 56.17726 | 92.48401 | 911 ft | 4 kts | 338° |
| 2026-05-05 15:43 | 56.17757 | 92.48397 | 911 ft | 4 kts | 3° |
| 2026-05-05 15:43 | 56.17789 | 92.48410 | 912 ft | 5 kts | 22° |
| 2026-05-05 15:43 | 56.17826 | 92.48444 | 911 ft | 6 kts | 27° |
| 2026-05-05 15:43 | 56.17859 | 92.48515 | 911 ft | 8 kts | 69° |
| 2026-05-05 15:44 | 56.17869 | 92.48554 | 910 ft | 5 kts | 64° |
| 2026-05-05 15:44 | 56.17895 | 92.48594 | 910 ft | 0 kts | 21° |
| 2026-05-05 15:44 | 56.17904 | 92.48600 | 910 ft | 3 kts | 22° |
| 2026-05-05 15:44 | 56.17910 | 92.48605 | 910 ft | 0 kts | 22° |